Ranfurly, Alberta

Past 24 Hour Conditions

This table is a summary of hourly weather conditions for the past 24 hours. This summary includes the following parameters: temperature, humidity, dew point, wind speed and direction, air pressure, visibility and/or wind chill and humidex.
Date / Time
(MDT)
Conditions Temp (°F) Humidity (%) Dew Point (°F) Wind (mph) Pressure (inches) Visibility (miles)
26 July 2014
5:00 N/A 56 97 55 WNW 10 29.9 N/A
4:00 N/A 56 95 55 WNW 10 gust 17 29.9 N/A
3:00 N/A 57 92 55 WNW 12 29.9 N/A
2:00 N/A 57 96 55 WNW 7 29.9 N/A
1:00 N/A 57 95 56 WNW 10 29.9 N/A
00:00 N/A 58 92 55 WNW 12 gust 18 29.9 N/A
25 July 2014
23:00 N/A 58 90 55 WNW 9 29.9 N/A
22:00 N/A 59 89 55 WNW 12 gust 19 29.8 N/A
21:00 N/A 60 87 56 WNW 12 gust 21 29.8 N/A
20:00 N/A 63 83 57 WNW 10 29.8 N/A
19:00 N/A 67   61 53 NW 6 29.7 N/A
18:00 N/A 67   58 52 NNW 11 29.7 N/A
17:00 N/A 66 61 52 NNW 11 29.7 N/A
16:00 N/A 65 67 54 N 9 29.7 N/A
15:00 N/A 63 69 53 N 12 29.6 N/A
14:00 N/A 63 73 54 N 11 gust 18 29.6 N/A
13:00 N/A 63 65 51 NNE 17 gust 23 29.6 N/A
12:00 N/A 60 72 51 NNE 11 29.5 N/A
11:00 N/A 60 77 53 NNE 7 29.5 N/A
10:00 N/A 60 78 53 NE 7 29.4 N/A
9:00 N/A 59 86 55 ENE 9 29.4 N/A
8:00 N/A 54 97 54 calm 29.4 N/A
7:00 N/A 53 98 52 SSE 2 29.5 N/A
6:00 N/A 52   98 51 WSW 7 29.5 N/A
5:00 N/A 52   97 51 WSW 12 gust 18 29.5 N/A
N/A
Not available
 ↑ 
Highest temperature
 ↓ 
Lowest temperature

If you require additional historical weather information, please visit Climate Data Online.